createdAt,value
2018-02-17T00:01:21.857Z,96229.55
2018-02-17T00:03:49.407Z,96237.98
2018-02-17T00:06:16.950Z,96231.94
2018-02-17T00:08:44.603Z,96236.99
2018-02-17T00:11:12.201Z,96241.19
2018-02-17T00:13:39.745Z,96244.02
2018-02-17T00:16:07.323Z,96241.47
2018-02-17T00:18:34.851Z,96235.27
2018-02-17T00:21:02.397Z,96247.86
2018-02-17T00:23:30.060Z,96239.02
2018-02-17T00:25:57.603Z,96249.52
2018-02-17T00:28:25.141Z,96249.11
2018-02-17T00:30:52.729Z,96254.22
2018-02-17T00:33:20.268Z,96243.10
2018-02-17T00:35:47.791Z,96242.06
2018-02-17T00:38:15.341Z,96236.56
2018-02-17T00:40:42.870Z,96241.30
2018-02-17T00:43:10.395Z,96232.83
2018-02-17T00:45:37.946Z,96237.84
2018-02-17T00:48:05.479Z,96235.86
2018-02-17T00:50:33.014Z,96238.42
2018-02-17T00:53:00.562Z,96239.77
2018-02-17T00:55:28.082Z,96237.78
2018-02-17T00:57:55.599Z,96243.84
2018-02-17T01:00:23.253Z,96242.66
2018-02-17T01:02:50.843Z,96246.29
2018-02-17T01:05:18.371Z,96241.86
2018-02-17T01:07:45.916Z,96239.58
2018-02-17T01:10:13.469Z,96242.16
2018-02-17T01:12:41.289Z,96254.66
2018-02-17T01:15:08.874Z,96247.77
2018-02-17T01:17:36.406Z,96252.91
2018-02-17T01:20:03.946Z,96266.45
2018-02-17T01:22:31.495Z,96257.38
2018-02-17T01:24:59.038Z,96265.45
2018-02-17T01:27:26.561Z,96258.46
2018-02-17T01:29:54.116Z,96255.51
2018-02-17T01:32:21.676Z,96247.52
2018-02-17T01:34:49.212Z,96251.37
2018-02-17T01:37:17.124Z,96246.88
2018-02-17T01:39:44.697Z,96242.02
2018-02-17T01:42:12.227Z,96236.44
2018-02-17T01:44:39.754Z,96236.58
2018-02-17T01:47:07.295Z,96244.91
2018-02-17T01:49:34.820Z,96248.94
2018-02-17T01:52:02.355Z,96244.91
2018-02-17T01:54:29.911Z,96249.61
2018-02-17T01:56:57.445Z,96243.43
2018-02-17T01:59:24.986Z,96244.00
2018-02-17T02:01:52.582Z,96240.91
2018-02-17T02:04:20.111Z,96246.55
2018-02-17T02:06:47.625Z,96244.58
2018-02-17T02:09:15.188Z,96234.43
2018-02-17T02:11:42.737Z,96233.13
2018-02-17T02:14:10.285Z,96221.98
2018-02-17T02:16:37.852Z,96225.70
2018-02-17T02:19:05.392Z,96225.74
2018-02-17T02:21:32.931Z,96226.55
2018-02-17T02:24:00.487Z,96225.74
2018-02-17T02:26:28.031Z,96234.91
2018-02-17T02:28:55.567Z,96229.97
2018-02-17T02:31:23.114Z,96232.25
2018-02-17T02:33:50.643Z,96239.64
2018-02-17T02:36:18.172Z,96236.28
2018-02-17T02:38:45.729Z,96226.58
2018-02-17T02:41:13.282Z,96248.23
2018-02-17T02:43:40.841Z,96251.93
2018-02-17T02:46:08.382Z,96250.48
2018-02-17T02:48:35.901Z,96264.63
2018-02-17T02:51:03.421Z,96258.84
2018-02-17T02:53:30.982Z,96259.42
2018-02-17T02:55:58.515Z,96260.23
2018-02-17T02:58:26.163Z,96267.98
2018-02-17T03:00:53.742Z,96268.25
2018-02-17T03:03:21.267Z,96267.78
2018-02-17T03:05:48.805Z,96269.80
2018-02-17T03:08:16.351Z,96276.55
2018-02-17T03:10:43.883Z,96268.22
2018-02-17T03:13:11.424Z,96263.95
2018-02-17T03:15:38.996Z,96267.41
2018-02-17T03:18:06.523Z,96285.74
2018-02-17T03:20:34.058Z,96285.58
2018-02-17T03:23:01.619Z,96288.27
2018-02-17T03:25:29.161Z,96292.70
2018-02-17T03:27:56.702Z,96302.00
2018-02-17T03:30:24.317Z,96297.42
2018-02-17T03:32:51.849Z,96300.92
2018-02-17T03:35:19.371Z,96294.17
2018-02-17T03:37:46.925Z,96288.80
2018-02-17T03:40:14.455Z,96286.11
2018-02-17T03:42:41.989Z,96285.91
2018-02-17T03:45:09.549Z,96289.51
2018-02-17T03:47:37.089Z,96273.80
2018-02-17T03:50:04.602Z,96287.33
2018-02-17T03:52:32.159Z,96270.09
2018-02-17T03:54:59.685Z,96287.92
2018-02-17T03:57:27.219Z,96275.67
2018-02-17T03:59:54.762Z,96271.56
2018-02-17T04:02:22.318Z,96273.81
2018-02-17T04:04:49.851Z,96276.06
2018-02-17T04:07:17.391Z,96276.47
2018-02-17T04:09:44.933Z,96262.30
2018-02-17T04:12:12.478Z,96269.88
2018-02-17T04:14:40.031Z,96257.56
2018-02-17T04:17:07.612Z,96266.89
2018-02-17T04:19:35.183Z,96276.70
2018-02-17T04:22:02.732Z,96276.03
2018-02-17T04:24:30.298Z,96274.28
2018-02-17T04:26:57.829Z,96278.08
2018-02-17T04:29:25.348Z,96282.37
2018-02-17T04:31:52.902Z,96273.85
2018-02-17T04:34:20.453Z,96276.77
2018-02-17T04:36:48.015Z,96282.14
2018-02-17T04:39:15.578Z,96270.36
2018-02-17T04:41:44.659Z,96270.62
2018-02-17T04:44:17.730Z,96265.99
2018-02-17T04:46:50.031Z,96265.26
2018-02-17T04:49:17.586Z,96261.94
2018-02-17T04:51:50.582Z,96254.31
2018-02-17T04:54:33.838Z,96253.14
2018-02-17T04:57:02.180Z,96252.64
2018-02-17T04:59:35.104Z,96256.77
2018-02-17T05:02:08.058Z,96259.25
2018-02-17T05:04:38.155Z,96276.55
2018-02-17T05:07:22.266Z,96274.16
2018-02-17T05:09:50.658Z,96270.27
2018-02-17T05:12:18.190Z,96276.05
2018-02-17T05:14:48.618Z,96284.41
2018-02-17T05:17:21.511Z,96289.47
2018-02-17T05:19:54.501Z,96292.26
2018-02-17T05:22:24.528Z,96296.69
2018-02-17T05:24:57.633Z,96304.34
2018-02-17T05:30:30.036Z,96303.34
2018-02-17T05:33:17.293Z,96301.96
2018-02-17T05:35:59.745Z,96311.87
2018-02-17T05:38:27.266Z,96308.83
2018-02-17T05:41:04.802Z,96306.22
2018-02-17T05:43:32.345Z,96305.11
2018-02-17T05:46:02.414Z,96298.11
2018-02-17T05:48:32.405Z,96299.86
2018-02-17T05:50:59.960Z,96290.34
2018-02-17T05:53:27.497Z,96281.09
2018-02-17T05:55:55.060Z,96287.98
2018-02-17T05:58:22.590Z,96303.77
2018-02-17T06:00:50.143Z,96304.70
2018-02-17T06:03:17.664Z,96317.08
2018-02-17T06:05:45.204Z,96313.11
2018-02-17T06:08:12.764Z,96308.19
2018-02-17T06:10:40.300Z,96312.02
2018-02-17T06:13:07.841Z,96316.59
2018-02-17T06:15:35.449Z,96325.13
2018-02-17T06:18:02.984Z,96305.61
2018-02-17T06:20:30.518Z,96294.73
2018-02-17T06:22:58.105Z,96306.02
2018-02-17T06:25:25.641Z,96317.77
2018-02-17T06:27:53.157Z,96288.85
2018-02-17T06:30:20.770Z,96302.61
2018-02-17T06:32:48.305Z,96295.38
2018-02-17T06:35:15.885Z,96294.83
2018-02-17T06:37:43.430Z,96303.95
2018-02-17T06:40:10.993Z,96318.43
2018-02-17T06:42:38.527Z,96304.19
2018-02-17T06:45:06.095Z,96309.80
2018-02-17T06:47:33.634Z,96314.73
2018-02-17T06:50:01.169Z,96306.23
2018-02-17T06:52:28.728Z,96293.80
2018-02-17T06:54:56.284Z,96300.78
2018-02-17T06:57:23.841Z,96291.17
2018-02-17T06:59:51.412Z,96275.42
2018-02-17T07:02:18.985Z,96279.63
2018-02-17T07:04:46.747Z,96283.25
2018-02-17T07:07:14.275Z,96297.50
2018-02-17T07:09:41.973Z,96303.46
2018-02-17T07:12:09.505Z,96302.58
2018-02-17T07:14:37.018Z,96307.77
2018-02-17T07:17:04.562Z,96311.23
2018-02-17T07:19:32.100Z,96304.67
2018-02-17T07:21:59.642Z,96307.34
2018-02-17T07:24:27.225Z,96300.42
2018-02-17T07:26:55.013Z,96288.50
2018-02-17T07:29:22.559Z,96289.73
2018-02-17T07:31:50.225Z,96295.75
2018-02-17T07:34:17.871Z,96298.00
2018-02-17T07:36:45.405Z,96293.71
2018-02-17T07:39:12.961Z,96292.52
2018-02-17T07:41:40.501Z,96283.38
2018-02-17T07:44:08.041Z,96282.59
2018-02-17T07:46:36.561Z,96282.46
2018-02-17T07:49:04.079Z,96274.37
2018-02-17T07:51:31.717Z,96271.53
2018-02-17T07:53:59.367Z,96272.05
2018-02-17T07:56:26.917Z,96264.13
2018-02-17T07:58:54.705Z,96257.70
2018-02-17T08:01:22.262Z,96243.29
2018-02-17T08:03:49.800Z,96238.20
2018-02-17T08:06:17.419Z,96242.27
2018-02-17T08:08:44.976Z,96240.16
2018-02-17T08:11:12.509Z,96242.34
2018-02-17T08:13:40.050Z,96241.14
2018-02-17T08:16:07.598Z,96233.52
2018-02-17T08:18:35.128Z,96237.16
2018-02-17T08:21:02.650Z,96230.76
2018-02-17T08:23:30.229Z,96234.70
2018-02-17T08:25:57.746Z,96225.98
2018-02-17T08:28:25.273Z,96225.42
2018-02-17T08:30:52.830Z,96227.13
2018-02-17T08:33:20.349Z,96220.19
2018-02-17T08:35:47.881Z,96214.69
2018-02-17T08:38:15.418Z,96221.21
2018-02-17T08:40:43.025Z,96213.53
2018-02-17T08:43:10.552Z,96219.03
2018-02-17T08:45:38.094Z,96208.83
2018-02-17T08:48:05.634Z,96206.82
2018-02-17T08:50:33.154Z,96210.34
2018-02-17T08:53:00.700Z,96206.02
2018-02-17T08:55:28.227Z,96214.68
2018-02-17T08:57:55.772Z,96200.78
2018-02-17T09:00:23.354Z,96202.80
2018-02-17T09:02:50.886Z,96195.55
2018-02-17T09:05:18.445Z,96192.42
2018-02-17T09:07:46.007Z,96199.67
2018-02-17T09:10:13.545Z,96200.08
2018-02-17T09:12:41.118Z,96189.90
2018-02-17T09:15:08.733Z,96176.31
2018-02-17T09:17:36.272Z,96182.77
2018-02-17T09:20:03.872Z,96181.47
2018-02-17T09:22:31.522Z,96177.44
2018-02-17T09:24:59.082Z,96170.74
2018-02-17T09:27:26.621Z,96171.28
2018-02-17T09:29:54.341Z,96168.11
2018-02-17T09:32:22.007Z,96168.11
2018-02-17T09:34:49.547Z,96157.73
2018-02-17T09:37:17.057Z,96156.05
2018-02-17T09:39:44.701Z,96151.93
2018-02-17T09:42:12.214Z,96152.02
2018-02-17T09:44:39.730Z,96150.13
2018-02-17T09:47:07.388Z,96147.19
2018-02-17T09:49:34.921Z,96155.91
2018-02-17T09:52:02.492Z,96152.25
2018-02-17T09:54:30.170Z,96145.81
2018-02-17T09:56:57.869Z,96139.58
2018-02-17T09:59:25.412Z,96143.45
2018-02-17T10:01:53.082Z,96124.41
2018-02-17T10:04:20.630Z,96123.03
2018-02-17T10:06:48.162Z,96116.52
2018-02-17T10:09:15.712Z,96118.18
2018-02-17T10:11:43.254Z,96112.44
2018-02-17T10:14:10.784Z,96109.19
2018-02-17T10:16:38.337Z,96106.75
2018-02-17T10:19:05.871Z,96104.89
2018-02-17T10:21:33.420Z,96097.22
2018-02-17T10:24:00.961Z,96096.01
2018-02-17T10:26:28.583Z,96089.92
2018-02-17T10:28:56.142Z,96083.73
2018-02-17T10:31:23.695Z,96099.95
2018-02-17T10:33:51.273Z,96069.02
2018-02-17T10:36:18.838Z,96072.45
2018-02-17T10:38:46.373Z,96071.38
2018-02-17T10:41:13.909Z,96069.06
2018-02-17T10:43:41.435Z,96062.48
2018-02-17T10:46:08.984Z,96058.50
2018-02-17T10:48:36.529Z,96064.62
2018-02-17T10:51:04.048Z,96060.27
2018-02-17T10:53:31.601Z,96051.00
2018-02-17T10:55:59.132Z,96038.61
2018-02-17T10:58:26.677Z,96041.07
2018-02-17T11:00:54.973Z,96041.61
2018-02-17T11:03:22.498Z,96035.83
2018-02-17T11:05:50.023Z,96021.69
2018-02-17T11:08:17.571Z,96014.85
2018-02-17T11:10:45.104Z,96020.30
2018-02-17T11:13:12.626Z,96011.69
2018-02-17T11:15:40.147Z,96006.50
2018-02-17T11:18:07.681Z,96002.21
2018-02-17T11:20:35.241Z,96006.39
2018-02-17T11:23:02.820Z,95998.71
2018-02-17T11:25:30.332Z,95993.27
2018-02-17T11:27:57.852Z,95994.89
2018-02-17T11:30:25.402Z,95982.23
2018-02-17T11:32:52.925Z,95984.73
2018-02-17T11:35:20.466Z,95982.54
2018-02-17T11:37:48.007Z,95982.47
2018-02-17T11:40:15.531Z,95977.69
2018-02-17T11:42:43.227Z,95972.09
2018-02-17T11:45:10.763Z,95951.66
2018-02-17T11:47:38.338Z,95966.30
2018-02-17T11:50:05.871Z,95960.55
2018-02-17T11:52:33.389Z,95950.48
2018-02-17T11:55:01.093Z,95956.81
2018-02-17T11:57:28.644Z,95954.81
2018-02-17T11:59:56.175Z,95948.17
2018-02-17T12:02:23.754Z,95942.16
2018-02-17T12:04:51.286Z,95943.54
2018-02-17T12:07:18.854Z,95938.89
2018-02-17T12:09:46.396Z,95940.69
2018-02-17T12:12:13.928Z,95937.67
2018-02-17T12:14:41.494Z,95935.38
2018-02-17T12:17:09.026Z,95931.34
2018-02-17T12:19:36.558Z,95930.33
2018-02-17T12:22:04.094Z,95924.69
2018-02-17T12:24:31.647Z,95924.63
2018-02-17T12:26:59.319Z,95921.48
2018-02-17T12:29:26.838Z,95915.79
2018-02-17T12:31:54.401Z,95909.20
2018-02-17T12:34:21.982Z,95906.06
2018-02-17T12:36:49.480Z,95903.11
2018-02-17T12:39:17.057Z,95894.86
2018-02-17T12:41:44.583Z,95891.55
2018-02-17T12:44:12.182Z,95892.14
2018-02-17T12:46:39.698Z,95889.61
2018-02-17T12:49:07.223Z,95883.01
2018-02-17T12:51:34.760Z,95884.72
2018-02-17T12:54:03.224Z,95887.02
2018-02-17T12:56:30.782Z,95887.59
2018-02-17T12:58:58.295Z,95894.27
2018-02-17T13:01:25.844Z,95885.86
2018-02-17T13:03:53.358Z,95881.38
2018-02-17T13:06:20.885Z,95878.42
2018-02-17T13:08:48.417Z,95868.43
2018-02-17T13:11:15.938Z,95866.92
2018-02-17T13:13:43.551Z,95854.87
2018-02-17T13:16:11.065Z,95857.48
2018-02-17T13:18:38.582Z,95852.69
2018-02-17T13:21:06.116Z,95847.27
2018-02-17T13:23:33.654Z,95846.12
2018-02-17T13:26:01.225Z,95836.50
2018-02-17T13:28:28.764Z,95849.92
2018-02-17T13:30:56.303Z,95841.36
2018-02-17T13:33:23.868Z,95844.90
2018-02-17T13:35:51.425Z,95847.23
2018-02-17T13:38:18.989Z,95831.11
2018-02-17T13:40:46.538Z,95827.17
2018-02-17T13:43:14.305Z,95841.63
2018-02-17T13:45:41.863Z,95838.61
2018-02-17T13:48:09.409Z,95828.16
2018-02-17T13:50:37.206Z,95836.56
2018-02-17T13:53:04.754Z,95834.11
2018-02-17T13:55:32.295Z,95826.58
2018-02-17T13:58:00.027Z,95828.48
2018-02-17T14:00:27.416Z,95826.22
2018-02-17T14:02:54.955Z,95825.45
2018-02-17T14:05:22.505Z,95827.91
2018-02-17T14:07:50.040Z,95823.27
2018-02-17T14:10:17.568Z,95826.80
2018-02-17T14:12:45.183Z,95827.39
2018-02-17T14:15:12.707Z,95816.27
2018-02-17T14:17:40.261Z,95822.38
2018-02-17T14:20:07.807Z,95816.42
2018-02-17T14:22:35.335Z,95817.78
2018-02-17T14:25:02.941Z,95811.75
2018-02-17T14:27:30.472Z,95810.43
2018-02-17T14:29:58.003Z,95805.48
2018-02-17T14:32:25.559Z,95804.78
2018-02-17T14:34:53.077Z,95811.53
2018-02-17T14:37:20.613Z,95808.07
2018-02-17T14:39:48.163Z,95807.33
2018-02-17T14:42:15.696Z,95798.03
2018-02-17T14:44:43.296Z,95799.86
2018-02-17T14:47:10.875Z,95799.00
2018-02-17T14:49:38.431Z,95791.52
2018-02-17T14:52:05.985Z,95802.45
2018-02-17T14:54:33.512Z,95786.51
2018-02-17T14:57:01.077Z,95782.78
2018-02-17T14:59:28.608Z,95798.70
2018-02-17T15:01:56.474Z,95798.18
2018-02-17T15:04:25.160Z,95795.06
2018-02-17T15:06:52.700Z,95793.03
2018-02-17T15:09:20.250Z,95799.09
2018-02-17T15:11:47.814Z,95800.57
2018-02-17T15:14:15.550Z,95798.26
2018-02-17T15:16:43.076Z,95791.34
2018-02-17T15:19:10.602Z,95801.17
2018-02-17T15:21:38.139Z,95793.98
2018-02-17T15:24:05.696Z,95791.67
2018-02-17T15:26:33.378Z,95796.16
2018-02-17T15:29:00.911Z,95794.20
2018-02-17T15:31:28.474Z,95792.08
2018-02-17T15:33:56.063Z,95798.66
2018-02-17T15:36:23.630Z,95793.61
2018-02-17T15:38:51.162Z,95782.99
2018-02-17T15:41:18.761Z,95798.15
2018-02-17T15:43:47.261Z,95787.53
2018-02-17T15:46:14.787Z,95783.31
2018-02-17T15:48:42.403Z,95785.56
2018-02-17T15:51:09.927Z,95786.39
2018-02-17T15:53:38.762Z,95789.45
2018-02-17T15:56:06.436Z,95793.28
2018-02-17T15:58:33.958Z,95784.30
2018-02-17T16:01:01.535Z,95785.41
2018-02-17T16:03:29.068Z,95789.62
2018-02-17T16:05:56.608Z,95786.08
2018-02-17T16:08:24.137Z,95795.39
2018-02-17T16:10:51.674Z,95796.74
2018-02-17T16:13:19.227Z,95797.56
2018-02-17T16:15:46.849Z,95804.61
2018-02-17T16:18:14.390Z,95805.79
2018-02-17T16:20:42.016Z,95810.61
2018-02-17T16:23:09.621Z,95808.98
2018-02-17T16:25:37.165Z,95805.38
2018-02-17T16:28:04.698Z,95819.53
2018-02-17T16:30:32.245Z,95816.33
2018-02-17T16:32:59.804Z,95808.42
2018-02-17T16:35:27.400Z,95820.56
2018-02-17T16:37:55.053Z,95818.06
2018-02-17T16:40:22.657Z,95807.98
2018-02-17T16:42:50.193Z,95817.70
2018-02-17T16:45:17.898Z,95823.43
2018-02-17T16:47:45.904Z,95823.67
2018-02-17T16:50:13.505Z,95819.20
2018-02-17T16:52:41.186Z,95818.70
2018-02-17T16:55:08.783Z,95824.73
2018-02-17T16:57:36.340Z,95824.13
2018-02-17T17:00:09.753Z,95820.32
2018-02-17T17:02:37.266Z,95833.25
2018-02-17T17:05:04.920Z,95836.70
2018-02-17T17:07:32.474Z,95827.68
2018-02-17T17:10:00.004Z,95827.09
2018-02-17T17:12:27.539Z,95826.48
2018-02-17T17:14:55.077Z,95825.92
2018-02-17T17:17:22.844Z,95817.61
2018-02-17T17:19:50.390Z,95815.15
2018-02-17T17:22:17.907Z,95817.61
2018-02-17T17:24:45.432Z,95816.36
2018-02-17T17:27:12.996Z,95816.89
2018-02-17T17:29:40.557Z,95817.16
2018-02-17T17:32:08.159Z,95825.49
2018-02-17T17:34:35.700Z,95829.34
2018-02-17T17:37:03.239Z,95829.55
2018-02-17T17:39:30.776Z,95820.31
2018-02-17T17:41:58.304Z,95828.89
2018-02-17T17:44:25.884Z,95822.02
2018-02-17T17:46:53.450Z,95830.74
2018-02-17T17:49:20.983Z,95824.63
2018-02-17T17:51:48.508Z,95828.55
2018-02-17T17:54:16.034Z,95828.14
2018-02-17T17:56:43.832Z,95815.34
2018-02-17T17:59:11.357Z,95837.55
2018-02-17T18:01:38.917Z,95838.91
2018-02-17T18:04:06.450Z,95854.56
2018-02-17T18:06:34.310Z,95843.84
2018-02-17T18:09:01.838Z,95840.03
2018-02-17T18:11:29.685Z,95839.37
2018-02-17T18:13:57.264Z,95835.96
2018-02-17T18:16:25.715Z,95824.27
2018-02-17T18:18:53.280Z,95831.58
2018-02-17T18:21:20.809Z,95839.84
2018-02-17T18:23:48.361Z,95841.84
2018-02-17T18:26:15.935Z,95840.74
2018-02-17T18:28:43.761Z,95831.47
2018-02-17T18:31:12.396Z,95838.72
2018-02-17T18:33:39.936Z,95827.42
2018-02-17T18:36:07.455Z,95824.44
2018-02-17T18:38:34.966Z,95837.44
2018-02-17T18:41:02.504Z,95840.84
2018-02-17T18:43:30.046Z,95828.09
2018-02-17T18:45:57.560Z,95836.70
2018-02-17T18:48:25.070Z,95832.28
2018-02-17T18:50:52.618Z,95834.89
2018-02-17T18:53:20.512Z,95836.67
2018-02-17T18:55:48.086Z,95829.08
2018-02-17T18:58:15.607Z,95828.98
2018-02-17T19:00:43.157Z,95828.86
2018-02-17T19:03:10.709Z,95826.98
2018-02-17T19:05:38.236Z,95824.19
2018-02-17T19:08:05.788Z,95824.03
2018-02-17T19:10:33.345Z,95825.02
2018-02-17T19:13:01.699Z,95824.45
2018-02-17T19:15:29.237Z,95833.55
2018-02-17T19:17:56.761Z,95820.53
2018-02-17T19:20:24.283Z,95826.56
2018-02-17T19:22:51.791Z,95826.30
2018-02-17T19:25:19.338Z,95828.78
2018-02-17T19:27:46.908Z,95832.36
2018-02-17T19:30:14.809Z,95834.69
2018-02-17T19:32:42.355Z,95822.00
2018-02-17T19:35:11.100Z,95825.89
2018-02-17T19:37:38.618Z,95820.73
2018-02-17T19:40:06.155Z,95822.64
2018-02-17T19:42:33.716Z,95823.37
2018-02-17T19:45:01.869Z,95826.25
2018-02-17T19:47:29.416Z,95828.33
2018-02-17T19:49:56.955Z,95828.34
2018-02-17T19:52:24.554Z,95825.80
2018-02-17T19:54:52.104Z,95817.64
2018-02-17T19:57:19.626Z,95821.84
2018-02-17T19:59:47.145Z,95809.42
2018-02-17T20:02:14.666Z,95828.45
2018-02-17T20:04:42.196Z,95842.90
2018-02-17T20:07:09.758Z,95826.23
2018-02-17T20:09:37.305Z,95825.55
2018-02-17T20:12:04.853Z,95828.41
2018-02-17T20:14:32.379Z,95828.23
2018-02-17T20:16:59.910Z,95826.59
2018-02-17T20:19:27.561Z,95828.03
2018-02-17T20:21:56.015Z,95832.36
2018-02-17T20:24:23.534Z,95828.90
2018-02-17T20:26:51.048Z,95838.99
2018-02-17T20:29:18.576Z,95839.46
2018-02-17T20:31:46.140Z,95838.11
2018-02-17T20:34:13.689Z,95834.30
2018-02-17T20:36:41.230Z,95836.92
2018-02-17T20:39:08.750Z,95833.42
2018-02-17T20:41:36.289Z,95832.01
2018-02-17T20:44:03.848Z,95831.67
2018-02-17T20:46:31.393Z,95836.52
2018-02-17T20:48:58.956Z,95830.11
2018-02-17T20:51:26.478Z,95829.86
2018-02-17T20:53:54.031Z,95828.29
2018-02-17T20:56:21.616Z,95826.94
2018-02-17T20:58:49.151Z,95820.89
2018-02-17T21:01:16.723Z,95819.23
2018-02-17T21:03:44.296Z,95820.83
2018-02-17T21:06:12.004Z,95827.73
2018-02-17T21:08:39.521Z,95822.00
2018-02-17T21:11:07.042Z,95822.34
2018-02-17T21:13:34.595Z,95834.08
2018-02-17T21:16:02.123Z,95825.50
2018-02-17T21:18:29.656Z,95832.18
2018-02-17T21:20:57.192Z,95827.00
2018-02-17T21:23:24.707Z,95839.08
2018-02-17T21:25:52.256Z,95830.68
2018-02-17T21:28:19.774Z,95829.16
2018-02-17T21:30:47.343Z,95820.67
2018-02-17T21:33:14.881Z,95834.23
2018-02-17T21:35:42.419Z,95827.42
2018-02-17T21:38:09.950Z,95821.70
2018-02-17T21:40:37.493Z,95817.18
2018-02-17T21:43:05.047Z,95813.28
2018-02-17T21:45:32.584Z,95805.38
2018-02-17T21:48:00.118Z,95807.12
2018-02-17T21:50:27.642Z,95809.02
2018-02-17T21:52:55.176Z,95802.27
2018-02-17T21:55:23.389Z,95810.45
2018-02-17T21:57:50.920Z,95810.20
2018-02-17T22:00:18.480Z,95807.68
2018-02-17T22:02:46.017Z,95807.50
2018-02-17T22:05:13.552Z,95809.18
2018-02-17T22:07:41.076Z,95807.09
2018-02-17T22:10:08.598Z,95814.72
2018-02-17T22:12:36.232Z,95813.08
2018-02-17T22:15:03.785Z,95810.45
2018-02-17T22:17:31.313Z,95801.16
2018-02-17T22:19:58.852Z,95796.42
2018-02-17T22:22:26.404Z,95813.95
2018-02-17T22:24:53.968Z,95799.75
2018-02-17T22:27:21.502Z,95800.06
2018-02-17T22:29:49.048Z,95796.72
2018-02-17T22:32:16.589Z,95794.97
2018-02-17T22:34:44.119Z,95791.32
2018-02-17T22:37:11.697Z,95785.23
2018-02-17T22:39:39.227Z,95787.13
2018-02-17T22:42:06.827Z,95773.23
2018-02-17T22:44:34.378Z,95773.64
2018-02-17T22:47:01.898Z,95771.82
2018-02-17T22:49:29.549Z,95771.89
2018-02-17T22:51:57.068Z,95772.98
2018-02-17T22:54:24.652Z,95777.30
2018-02-17T22:56:52.206Z,95783.94
2018-02-17T22:59:19.737Z,95783.86
2018-02-17T23:01:47.356Z,95781.42
2018-02-17T23:04:14.885Z,95775.84
2018-02-17T23:06:42.410Z,95775.31
2018-02-17T23:09:09.968Z,95778.95
2018-02-17T23:11:37.498Z,95779.03
2018-02-17T23:14:05.052Z,95773.41
2018-02-17T23:16:32.578Z,95777.68
2018-02-17T23:19:00.108Z,95769.78
2018-02-17T23:21:27.644Z,95789.05
2018-02-17T23:23:55.175Z,95782.60
2018-02-17T23:26:22.769Z,95777.76
2018-02-17T23:28:51.095Z,95776.27
2018-02-17T23:31:18.673Z,95775.06
2018-02-17T23:33:46.204Z,95780.72
2018-02-17T23:36:13.741Z,95774.05
2018-02-17T23:38:41.265Z,95777.29
2018-02-17T23:41:08.795Z,95776.19
2018-02-17T23:43:36.344Z,95780.31
2018-02-17T23:46:03.867Z,95776.90
2018-02-17T23:48:31.395Z,95782.21
2018-02-17T23:50:58.916Z,95785.39
2018-02-17T23:53:26.433Z,95773.33
2018-02-17T23:55:53.942Z,95776.03
2018-02-17T23:58:21.476Z,95787.86
